createdAt,value
2022-12-04T00:05:12.823Z,40.20
2022-12-04T00:10:32.913Z,40.10
2022-12-04T00:15:53.094Z,40.00
2022-12-04T00:21:13.335Z,39.90
2022-12-04T00:26:33.484Z,39.70
2022-12-04T00:31:53.798Z,39.40
2022-12-04T00:37:13.862Z,39.30
2022-12-04T00:42:34.627Z,39.30
2022-12-04T00:47:54.827Z,39.20
2022-12-04T00:53:14.946Z,39.10
2022-12-04T00:58:35.033Z,39.20
2022-12-04T01:03:55.240Z,39.00
2022-12-04T01:09:15.183Z,39.00
2022-12-04T01:14:35.402Z,39.10
2022-12-04T01:19:55.873Z,39.00
2022-12-04T01:25:16.289Z,39.00
2022-12-04T01:30:36.234Z,39.00
2022-12-04T01:35:56.476Z,39.00
2022-12-04T01:41:16.540Z,38.90
2022-12-04T01:46:36.723Z,38.80
2022-12-04T01:51:56.832Z,38.80
2022-12-04T01:57:17.074Z,38.80
2022-12-04T02:02:37.410Z,38.80
2022-12-04T02:07:57.713Z,38.70
2022-12-04T02:13:17.689Z,38.60
2022-12-04T02:18:37.921Z,38.60
2022-12-04T02:23:58.075Z,38.50
2022-12-04T02:29:18.234Z,38.50
2022-12-04T02:34:38.282Z,38.50
2022-12-04T02:39:58.746Z,38.50
2022-12-04T02:45:18.640Z,38.40
2022-12-04T02:50:38.895Z,38.40
2022-12-04T02:55:59.032Z,38.40
2022-12-04T03:01:19.337Z,38.40
2022-12-04T03:06:39.209Z,38.30
2022-12-04T03:11:59.514Z,38.40
2022-12-04T03:17:19.665Z,38.30
2022-12-04T03:22:39.962Z,38.30
2022-12-04T03:28:00.148Z,38.30
2022-12-04T03:33:20.350Z,38.20
2022-12-04T03:38:40.448Z,38.20
2022-12-04T03:44:00.597Z,38.20
2022-12-04T03:49:20.816Z,38.10
2022-12-04T03:54:41.141Z,38.10
2022-12-04T04:00:01.407Z,38.20
2022-12-04T04:05:22.025Z,38.10
2022-12-04T04:10:42.188Z,38.10
2022-12-04T04:16:02.437Z,38.10
2022-12-04T04:21:22.666Z,38.00
2022-12-04T04:26:42.874Z,38.00
2022-12-04T04:32:02.914Z,38.00
2022-12-04T04:37:23.202Z,38.00
2022-12-04T04:42:43.847Z,38.00
2022-12-04T04:48:04.199Z,38.00
2022-12-04T04:53:24.562Z,37.90
2022-12-04T04:58:44.705Z,38.00
2022-12-04T05:04:04.897Z,38.00
2022-12-04T05:09:25.288Z,38.00
2022-12-04T05:14:45.452Z,38.00
2022-12-04T05:20:05.469Z,37.90
2022-12-04T05:25:25.554Z,37.90
2022-12-04T05:30:45.697Z,37.80
2022-12-04T05:36:05.874Z,37.80
2022-12-04T05:41:26.038Z,37.80
2022-12-04T05:46:46.223Z,37.80
2022-12-04T05:52:06.320Z,37.80
2022-12-04T05:57:29.818Z,37.80
2022-12-04T06:02:50.147Z,37.80
2022-12-04T06:08:10.239Z,37.80
2022-12-04T06:13:30.399Z,37.80
2022-12-04T06:18:50.459Z,37.80
2022-12-04T06:24:10.636Z,37.80
2022-12-04T06:29:30.697Z,37.80
2022-12-04T06:34:50.958Z,37.70
2022-12-04T06:40:11.109Z,37.70
2022-12-04T06:45:31.376Z,37.60
2022-12-04T06:50:51.374Z,37.60
2022-12-04T06:56:11.475Z,37.60
2022-12-04T07:01:31.651Z,37.60
2022-12-04T07:06:51.699Z,37.60
2022-12-04T07:12:11.771Z,37.50
2022-12-04T07:17:31.970Z,37.60
2022-12-04T07:22:52.030Z,37.60
2022-12-04T07:28:12.135Z,37.50
2022-12-04T07:33:32.169Z,37.50
2022-12-04T07:38:52.270Z,37.50
2022-12-04T07:44:12.363Z,37.50
2022-12-04T07:49:32.471Z,37.50
2022-12-04T07:54:52.504Z,37.50
2022-12-04T08:00:12.716Z,37.50
2022-12-04T08:05:32.950Z,37.40
2022-12-04T08:10:52.955Z,37.50
2022-12-04T08:16:13.182Z,37.60
2022-12-04T08:21:33.315Z,37.40
2022-12-04T08:26:53.470Z,37.40
2022-12-04T08:32:13.587Z,37.40
2022-12-04T08:37:33.888Z,37.40
2022-12-04T08:42:54.072Z,37.40
2022-12-04T08:48:14.341Z,37.40
2022-12-04T08:53:34.365Z,37.30
2022-12-04T08:58:54.544Z,37.40
2022-12-04T09:04:14.671Z,37.40
2022-12-04T09:09:34.649Z,37.40
2022-12-04T09:14:54.743Z,37.30
2022-12-04T09:20:14.800Z,37.30
2022-12-04T09:25:35.000Z,37.30
2022-12-04T09:30:55.148Z,37.30
2022-12-04T09:36:15.247Z,37.30
2022-12-04T09:41:35.357Z,37.40
2022-12-04T09:46:55.500Z,37.30
2022-12-04T09:52:21.584Z,37.30
2022-12-04T09:57:41.869Z,37.30
2022-12-04T10:03:02.133Z,37.30
2022-12-04T10:08:22.476Z,37.30
2022-12-04T10:13:42.419Z,37.30
2022-12-04T10:19:02.685Z,37.30
2022-12-04T10:24:22.844Z,37.20
2022-12-04T10:29:43.199Z,37.30
2022-12-04T10:35:03.245Z,37.30
2022-12-04T10:40:23.340Z,37.30
2022-12-04T10:45:43.496Z,37.20
2022-12-04T10:51:03.678Z,37.20
2022-12-04T10:56:23.713Z,37.20
2022-12-04T11:01:44.033Z,37.20
2022-12-04T11:07:05.058Z,37.20
2022-12-04T11:12:25.346Z,37.20
2022-12-04T11:17:45.399Z,37.20
2022-12-04T11:23:05.603Z,37.10
2022-12-04T11:28:41.256Z,37.20
2022-12-04T11:34:02.309Z,37.20
2022-12-04T11:39:22.437Z,37.20
2022-12-04T11:44:42.660Z,37.20
2022-12-04T11:50:02.683Z,37.20
2022-12-04T11:55:28.598Z,37.10
2022-12-04T12:00:49.319Z,37.10
2022-12-04T12:06:09.504Z,37.10
2022-12-04T12:11:29.561Z,37.10
2022-12-04T12:16:51.386Z,37.00
2022-12-04T12:22:11.538Z,37.10
2022-12-04T12:27:31.672Z,37.10
2022-12-04T12:32:51.875Z,37.10
2022-12-04T12:38:12.035Z,37.10
2022-12-04T12:43:32.227Z,37.10
2022-12-04T12:48:57.958Z,37.40
2022-12-04T12:54:18.521Z,37.40
2022-12-04T12:59:38.629Z,37.30
2022-12-04T13:04:58.798Z,37.40
2022-12-04T13:10:18.921Z,37.60
2022-12-04T13:15:39.182Z,37.50
2022-12-04T13:20:59.241Z,37.60
2022-12-04T13:26:23.154Z,37.80
2022-12-04T13:31:43.382Z,37.80
2022-12-04T13:37:03.392Z,37.90
2022-12-04T13:42:23.555Z,38.00
2022-12-04T13:47:43.646Z,38.00
2022-12-04T13:53:03.795Z,38.00
2022-12-04T13:58:23.958Z,38.00
2022-12-04T14:03:44.080Z,38.10
2022-12-04T14:09:04.170Z,38.20
2022-12-04T14:14:24.284Z,38.00
2022-12-04T14:19:44.367Z,37.90
2022-12-04T14:25:04.452Z,38.40
2022-12-04T14:30:24.817Z,38.50
2022-12-04T14:35:44.726Z,36.60
2022-12-04T14:41:04.826Z,37.00
2022-12-04T14:46:24.990Z,37.20
2022-12-04T14:51:45.137Z,37.20
2022-12-04T14:57:05.123Z,38.00
2022-12-04T15:02:25.273Z,38.70
2022-12-04T15:07:45.408Z,39.00
2022-12-04T15:13:05.345Z,38.60
2022-12-04T15:18:25.414Z,38.40
2022-12-04T15:23:45.639Z,38.20
2022-12-04T15:29:05.838Z,37.80
2022-12-04T15:34:26.091Z,38.10
2022-12-04T15:39:46.209Z,37.90
2022-12-04T15:45:06.349Z,37.90
2022-12-04T15:50:26.496Z,38.70
2022-12-04T15:55:49.728Z,39.60
2022-12-04T16:01:09.883Z,40.20
2022-12-04T16:06:30.088Z,40.60
2022-12-04T16:11:51.403Z,40.90
2022-12-04T16:17:11.261Z,40.70
2022-12-04T16:22:31.420Z,39.50
2022-12-04T16:27:51.436Z,39.10
2022-12-04T16:33:11.463Z,39.20
2022-12-04T16:38:31.727Z,40.00
2022-12-04T16:43:51.729Z,40.40
2022-12-04T16:49:11.913Z,41.00
2022-12-04T16:54:31.988Z,41.00
2022-12-04T16:59:52.148Z,41.20
2022-12-04T17:05:12.125Z,41.40
2022-12-04T17:10:32.215Z,41.20
2022-12-04T17:15:52.282Z,41.20
2022-12-04T17:21:12.586Z,41.60
2022-12-04T17:26:32.611Z,40.80
2022-12-04T17:31:53.163Z,40.40
2022-12-04T17:37:13.208Z,40.00
2022-12-04T17:42:33.464Z,39.60
2022-12-04T17:47:53.620Z,39.60
2022-12-04T17:53:13.706Z,40.00
2022-12-04T17:58:33.919Z,40.20
2022-12-04T18:03:54.095Z,40.60
2022-12-04T18:09:14.141Z,40.70
2022-12-04T18:14:34.409Z,40.70
2022-12-04T18:19:56.920Z,40.10
2022-12-04T18:25:19.738Z,40.60
2022-12-04T18:30:39.840Z,40.20
2022-12-04T18:36:00.099Z,40.10
2022-12-04T18:41:20.232Z,40.10
2022-12-04T18:46:40.389Z,40.10
2022-12-04T18:52:00.647Z,40.20
2022-12-04T18:57:20.788Z,40.20
2022-12-04T19:02:41.000Z,40.10
2022-12-04T19:08:01.128Z,40.20
2022-12-04T19:13:21.152Z,40.10
2022-12-04T19:18:41.315Z,40.20
2022-12-04T19:24:01.331Z,40.20
2022-12-04T19:29:21.600Z,40.20
2022-12-04T19:34:41.713Z,40.20
2022-12-04T19:40:02.032Z,40.20
2022-12-04T19:45:22.240Z,40.10
2022-12-04T19:50:42.422Z,40.20
2022-12-04T19:56:02.454Z,40.20
2022-12-04T20:01:22.641Z,40.20
2022-12-04T20:06:42.632Z,40.10
2022-12-04T20:12:02.762Z,40.10
2022-12-04T20:17:22.962Z,40.20
2022-12-04T20:22:43.071Z,40.10
2022-12-04T20:28:03.199Z,40.10
2022-12-04T20:33:23.364Z,40.10
2022-12-04T20:38:43.452Z,40.10
2022-12-04T20:44:03.533Z,40.10
2022-12-04T20:49:23.742Z,40.10
2022-12-04T20:54:43.762Z,40.10
2022-12-04T21:00:03.803Z,40.10
2022-12-04T21:05:23.949Z,40.00
2022-12-04T21:10:44.090Z,40.00
2022-12-04T21:16:04.246Z,40.00
2022-12-04T21:21:24.345Z,40.10
2022-12-04T21:26:44.510Z,40.10
2022-12-04T21:32:04.564Z,40.10
2022-12-04T21:37:24.922Z,40.10
2022-12-04T21:42:45.022Z,40.10
2022-12-04T21:48:05.121Z,40.00
2022-12-04T21:53:25.147Z,40.00
2022-12-04T21:58:45.285Z,40.00
2022-12-04T22:04:05.438Z,40.00
2022-12-04T22:09:25.786Z,40.00
2022-12-04T22:14:45.880Z,40.00
2022-12-04T22:20:06.181Z,39.90
2022-12-04T22:25:26.247Z,40.00
2022-12-04T22:30:46.323Z,39.90
2022-12-04T22:36:06.417Z,39.90
2022-12-04T22:41:26.763Z,39.90
2022-12-04T22:46:46.891Z,39.90
2022-12-04T22:52:06.909Z,39.90
2022-12-04T22:57:27.034Z,39.90
2022-12-04T23:02:47.142Z,39.90
2022-12-04T23:08:07.316Z,40.10
2022-12-04T23:13:27.505Z,39.90
2022-12-04T23:18:47.466Z,39.80
2022-12-04T23:24:07.623Z,39.90
2022-12-04T23:35:07.638Z,39.80
2022-12-04T23:40:27.657Z,39.80
2022-12-04T23:45:47.865Z,39.90
2022-12-04T23:51:08.472Z,39.90
2022-12-04T23:56:28.720Z,39.90
